createdAt,value
2019-06-20T00:00:07.278Z,24.60
2019-06-20T00:01:07.272Z,24.53
2019-06-20T00:02:07.277Z,24.48
2019-06-20T00:03:07.278Z,24.45
2019-06-20T00:04:07.281Z,24.42
2019-06-20T00:05:07.283Z,24.50
2019-06-20T00:06:07.289Z,24.40
2019-06-20T00:07:07.293Z,24.38
2019-06-20T00:08:07.298Z,24.43
2019-06-20T00:09:07.335Z,24.42
2019-06-20T00:10:07.298Z,24.43
2019-06-20T00:11:07.303Z,24.47
2019-06-20T00:12:07.321Z,24.39
2019-06-20T00:13:07.306Z,24.43
2019-06-20T00:14:07.309Z,24.36
2019-06-20T00:15:07.314Z,24.33
2019-06-20T00:16:07.326Z,24.32
2019-06-20T00:17:07.319Z,24.23
2019-06-20T00:18:07.326Z,24.24
2019-06-20T00:19:07.323Z,24.23
2019-06-20T00:20:07.327Z,24.14
2019-06-20T00:21:07.328Z,24.03
2019-06-20T00:22:07.334Z,23.84
2019-06-20T00:23:07.336Z,23.87
2019-06-20T00:24:07.338Z,23.77
2019-06-20T00:25:07.340Z,23.66
2019-06-20T00:26:07.344Z,23.71
2019-06-20T00:27:07.345Z,23.54
2019-06-20T00:28:07.361Z,23.41
2019-06-20T00:29:07.356Z,23.31
2019-06-20T00:30:07.353Z,23.32
2019-06-20T00:31:07.359Z,23.44
2019-06-20T00:32:07.357Z,23.73
2019-06-20T00:33:07.360Z,24.03
2019-06-20T00:34:07.365Z,24.51
2019-06-20T00:35:07.369Z,24.84
2019-06-20T00:36:07.370Z,24.95
2019-06-20T00:37:07.373Z,25.16
2019-06-20T00:38:07.378Z,25.23
2019-06-20T00:39:07.387Z,25.26
2019-06-20T00:40:07.381Z,25.17
2019-06-20T00:41:07.388Z,24.98
2019-06-20T00:42:07.385Z,24.68
2019-06-20T00:43:16.861Z,24.42
2019-06-20T00:44:07.394Z,24.13
2019-06-20T00:45:07.393Z,23.86
2019-06-20T00:46:07.413Z,23.63
2019-06-20T00:47:07.401Z,23.44
2019-06-20T00:48:07.410Z,23.47
2019-06-20T00:49:07.408Z,23.28
2019-06-20T00:50:07.407Z,23.20
2019-06-20T00:51:07.412Z,23.06
2019-06-20T00:52:07.436Z,22.93
2019-06-20T00:53:07.416Z,22.85
2019-06-20T00:54:07.463Z,22.76
2019-06-20T00:55:07.423Z,22.75
2019-06-20T00:56:07.419Z,22.68
2019-06-20T00:57:07.430Z,22.68
2019-06-20T00:58:07.426Z,22.59
2019-06-20T00:59:07.427Z,22.47
2019-06-20T01:00:07.431Z,22.43
2019-06-20T01:01:07.434Z,22.38
2019-06-20T01:02:07.446Z,22.39
2019-06-20T01:03:07.440Z,22.54
2019-06-20T01:04:07.442Z,22.51
2019-06-20T01:05:07.445Z,22.66
2019-06-20T01:06:07.453Z,22.70
2019-06-20T01:07:07.449Z,22.63
2019-06-20T01:08:07.452Z,22.44
2019-06-20T01:09:07.451Z,22.50
2019-06-20T01:10:07.455Z,22.48
2019-06-20T01:11:07.453Z,22.54
2019-06-20T01:12:07.457Z,22.50
2019-06-20T01:13:07.460Z,22.35
2019-06-20T01:14:07.465Z,22.39
2019-06-20T01:15:07.463Z,22.15
2019-06-20T01:16:07.468Z,22.18
2019-06-20T01:17:07.468Z,22.11
2019-06-20T01:18:07.468Z,22.10
2019-06-20T01:19:07.468Z,22.06
2019-06-20T01:20:07.479Z,22.10
2019-06-20T01:21:07.475Z,22.08
2019-06-20T01:22:07.475Z,21.95
2019-06-20T01:23:07.475Z,21.95
2019-06-20T01:24:07.482Z,21.92
2019-06-20T01:25:07.484Z,21.79
2019-06-20T01:26:07.483Z,21.88
2019-06-20T01:27:07.484Z,21.75
2019-06-20T01:28:07.489Z,21.72
2019-06-20T01:29:07.484Z,21.69
2019-06-20T01:30:07.492Z,21.66
2019-06-20T01:31:07.488Z,21.64
2019-06-20T01:32:07.490Z,21.54
2019-06-20T01:33:07.498Z,21.52
2019-06-20T01:34:07.495Z,21.50
2019-06-20T01:35:07.495Z,21.46
2019-06-20T01:36:07.494Z,21.36
2019-06-20T01:37:07.499Z,21.32
2019-06-20T01:38:07.497Z,21.33
2019-06-20T01:39:07.504Z,21.18
2019-06-20T01:40:07.500Z,21.18
2019-06-20T01:41:07.503Z,21.15
2019-06-20T01:42:07.504Z,21.14
2019-06-20T01:43:07.506Z,21.18
2019-06-20T01:44:07.510Z,21.14
2019-06-20T01:45:07.512Z,21.18
2019-06-20T01:46:07.509Z,21.15
2019-06-20T01:47:07.515Z,21.11
2019-06-20T01:48:07.510Z,21.07
2019-06-20T01:49:07.519Z,21.09
2019-06-20T01:50:07.517Z,21.02
2019-06-20T01:51:07.517Z,21.05
2019-06-20T01:52:07.516Z,21.05
2019-06-20T01:53:07.518Z,20.97
2019-06-20T01:54:07.520Z,21.05
2019-06-20T01:55:07.521Z,21.00
2019-06-20T01:56:07.520Z,20.92
2019-06-20T01:57:07.524Z,20.88
2019-06-20T01:58:07.525Z,20.96
2019-06-20T01:59:07.524Z,20.81
2019-06-20T02:00:07.533Z,20.75
2019-06-20T02:01:07.527Z,20.78
2019-06-20T02:02:07.532Z,20.77
2019-06-20T02:03:07.528Z,20.72
2019-06-20T02:04:07.559Z,20.78
2019-06-20T02:05:07.530Z,20.77
2019-06-20T02:06:07.539Z,20.60
2019-06-20T02:07:07.602Z,20.72
2019-06-20T02:08:07.532Z,20.66
2019-06-20T02:09:07.575Z,20.67
2019-06-20T02:10:07.537Z,20.62
2019-06-20T02:11:07.539Z,20.60
2019-06-20T02:12:07.577Z,20.55
2019-06-20T02:13:07.537Z,20.43
2019-06-20T02:14:07.768Z,20.47
2019-06-20T02:15:07.550Z,20.51
2019-06-20T02:16:07.541Z,20.48
2019-06-20T02:17:07.552Z,20.58
2019-06-20T02:18:07.542Z,20.43
2019-06-20T02:19:07.548Z,20.52
2019-06-20T02:20:07.545Z,20.51
2019-06-20T02:21:07.547Z,20.48
2019-06-20T02:22:07.554Z,20.39
2019-06-20T02:23:07.548Z,20.50
2019-06-20T02:24:07.546Z,20.51
2019-06-20T02:25:07.586Z,20.40
2019-06-20T02:26:07.557Z,20.37
2019-06-20T02:27:07.563Z,20.34
2019-06-20T02:28:07.552Z,20.34
2019-06-20T02:29:07.559Z,20.25
2019-06-20T02:30:07.554Z,20.22
2019-06-20T02:31:07.561Z,20.28
2019-06-20T02:32:07.572Z,20.24
2019-06-20T02:33:07.554Z,20.21
2019-06-20T02:34:07.557Z,20.22
2019-06-20T02:35:07.573Z,20.19
2019-06-20T02:36:07.587Z,20.25
2019-06-20T02:37:07.566Z,20.19
2019-06-20T02:38:07.668Z,20.21
2019-06-20T02:39:07.559Z,20.16
2019-06-20T02:40:07.558Z,20.13
2019-06-20T02:41:07.561Z,20.09
2019-06-20T02:42:07.564Z,20.07
2019-06-20T02:43:07.565Z,20.11
2019-06-20T02:44:24.795Z,20.13
2019-06-20T02:45:07.567Z,20.07
2019-06-20T02:46:07.566Z,20.09
2019-06-20T02:47:07.567Z,20.19
2019-06-20T02:48:07.568Z,20.10
2019-06-20T02:49:07.568Z,20.16
2019-06-20T02:50:07.569Z,19.99
2019-06-20T02:51:07.572Z,20.06
2019-06-20T02:52:07.571Z,20.03
2019-06-20T02:53:07.571Z,19.99
2019-06-20T02:54:07.572Z,19.99
2019-06-20T02:55:07.573Z,19.88
2019-06-20T02:56:07.572Z,19.85
2019-06-20T02:57:07.575Z,19.85
2019-06-20T02:58:07.575Z,19.91
2019-06-20T02:59:07.577Z,19.70
2019-06-20T03:00:07.586Z,19.73
2019-06-20T03:01:07.577Z,19.69
2019-06-20T03:02:07.651Z,19.71
2019-06-20T03:03:07.597Z,19.71
2019-06-20T03:04:07.576Z,19.69
2019-06-20T03:05:07.583Z,19.70
2019-06-20T03:06:07.585Z,19.74
2019-06-20T03:07:07.580Z,19.71
2019-06-20T03:08:07.581Z,19.71
2019-06-20T03:09:07.592Z,19.70
2019-06-20T03:10:07.583Z,19.71
2019-06-20T03:11:07.586Z,19.67
2019-06-20T03:12:07.585Z,19.77
2019-06-20T03:13:09.524Z,19.91
2019-06-20T03:14:07.586Z,19.73
2019-06-20T03:15:07.585Z,19.82
2019-06-20T03:16:07.599Z,19.82
2019-06-20T03:17:07.588Z,19.84
2019-06-20T03:18:07.589Z,19.77
2019-06-20T03:19:07.591Z,19.85
2019-06-20T03:20:07.590Z,19.95
2019-06-20T03:21:07.590Z,19.99
2019-06-20T03:22:07.597Z,19.96
2019-06-20T03:23:07.595Z,19.96
2019-06-20T03:24:07.631Z,20.07
2019-06-20T03:25:07.604Z,20.02
2019-06-20T03:26:07.602Z,20.07
2019-06-20T03:27:07.596Z,20.09
2019-06-20T03:28:07.598Z,20.13
2019-06-20T03:29:07.600Z,20.16
2019-06-20T03:30:07.602Z,20.25
2019-06-20T03:31:07.599Z,20.24
2019-06-20T03:32:07.608Z,20.21
2019-06-20T03:33:07.609Z,20.13
2019-06-20T03:34:07.606Z,20.18
2019-06-20T03:35:07.611Z,20.14
2019-06-20T03:36:07.611Z,20.11
2019-06-20T03:37:07.608Z,20.11
2019-06-20T03:38:07.608Z,20.11
2019-06-20T03:39:07.608Z,20.14
2019-06-20T03:40:07.610Z,20.14
2019-06-20T03:41:07.639Z,20.19
2019-06-20T03:42:07.611Z,20.18
2019-06-20T03:43:07.607Z,20.14
2019-06-20T03:44:07.676Z,20.29
2019-06-20T03:45:07.616Z,20.24
2019-06-20T03:46:07.620Z,20.28
2019-06-20T03:47:07.618Z,20.26
2019-06-20T03:48:07.616Z,20.32
2019-06-20T03:49:07.622Z,20.41
2019-06-20T03:50:07.617Z,20.26
2019-06-20T03:51:07.711Z,20.19
2019-06-20T03:52:07.622Z,20.10
2019-06-20T03:53:07.624Z,20.39
2019-06-20T03:54:07.621Z,21.03
2019-06-20T03:55:07.626Z,21.48
2019-06-20T03:56:07.634Z,21.98
2019-06-20T03:57:07.627Z,22.35
2019-06-20T03:58:07.628Z,22.75
2019-06-20T03:59:07.632Z,23.03
2019-06-20T04:00:07.635Z,23.15
2019-06-20T04:01:07.635Z,23.21
2019-06-20T04:02:07.632Z,23.24
2019-06-20T04:03:07.635Z,23.50
2019-06-20T04:04:07.630Z,23.58
2019-06-20T04:05:07.638Z,23.68
2019-06-20T04:06:07.635Z,23.87
2019-06-20T04:07:07.640Z,24.26
2019-06-20T04:08:07.643Z,24.54
2019-06-20T04:09:07.643Z,24.86
2019-06-20T04:10:07.647Z,25.11
2019-06-20T04:11:07.644Z,25.36
2019-06-20T04:12:07.650Z,25.55
2019-06-20T04:13:07.647Z,25.75
2019-06-20T04:14:07.646Z,25.83
2019-06-20T04:15:18.438Z,25.90
2019-06-20T04:16:07.663Z,25.93
2019-06-20T04:17:07.659Z,25.98
2019-06-20T04:18:07.659Z,26.15
2019-06-20T04:19:07.669Z,26.05
2019-06-20T04:20:07.706Z,25.99
2019-06-20T04:21:07.663Z,25.99
2019-06-20T04:22:07.667Z,26.10
2019-06-20T04:23:07.671Z,26.28
2019-06-20T04:24:07.673Z,26.66
2019-06-20T04:25:07.682Z,27.02
2019-06-20T04:26:07.737Z,27.33
2019-06-20T04:27:07.677Z,27.63
2019-06-20T04:28:07.687Z,27.96
2019-06-20T04:29:07.682Z,28.14
2019-06-20T04:30:07.688Z,28.57
2019-06-20T04:31:07.774Z,28.59
2019-06-20T04:32:07.695Z,28.48
2019-06-20T04:33:07.708Z,28.27
2019-06-20T04:34:07.699Z,28.44
2019-06-20T04:35:07.704Z,28.70
2019-06-20T04:36:07.724Z,29.02
2019-06-20T04:37:07.708Z,29.34
2019-06-20T04:38:07.737Z,29.59
2019-06-20T04:39:18.632Z,29.73
2019-06-20T04:40:07.726Z,29.91
2019-06-20T04:41:07.722Z,30.03
2019-06-20T04:42:07.727Z,29.95
2019-06-20T04:43:07.730Z,29.81
2019-06-20T04:44:07.737Z,29.59
2019-06-20T04:45:07.737Z,29.38
2019-06-20T04:46:07.744Z,28.48
2019-06-20T04:47:07.757Z,28.38
2019-06-20T04:48:07.752Z,28.75
2019-06-20T04:49:07.761Z,29.16
2019-06-20T04:50:07.760Z,29.51
2019-06-20T04:51:07.769Z,29.82
2019-06-20T04:52:07.767Z,29.95
2019-06-20T04:53:07.778Z,30.21
2019-06-20T04:54:07.774Z,30.13
2019-06-20T04:55:07.778Z,29.76
2019-06-20T04:56:07.782Z,29.31
2019-06-20T04:57:07.789Z,28.98
2019-06-20T04:58:07.797Z,28.70
2019-06-20T04:59:07.797Z,28.38
2019-06-20T05:00:07.798Z,28.47
2019-06-20T05:01:07.807Z,28.76
2019-06-20T05:02:07.815Z,28.81
2019-06-20T05:03:07.814Z,28.98
2019-06-20T05:04:07.830Z,29.39
2019-06-20T05:05:07.823Z,30.08
2019-06-20T05:06:07.826Z,30.46
2019-06-20T05:07:07.833Z,30.69
2019-06-20T05:08:07.836Z,30.75
2019-06-20T05:09:07.839Z,31.07
2019-06-20T05:10:07.846Z,31.29
2019-06-20T05:11:07.852Z,31.59
2019-06-20T05:12:07.856Z,31.70
2019-06-20T05:13:07.863Z,31.51
2019-06-20T05:14:07.873Z,31.69
2019-06-20T05:15:07.884Z,31.17
2019-06-20T05:16:07.878Z,31.17
2019-06-20T05:17:07.883Z,31.47
2019-06-20T05:18:07.894Z,31.64
2019-06-20T05:19:07.895Z,31.90
2019-06-20T05:20:07.932Z,32.09
2019-06-20T05:21:07.910Z,31.46
2019-06-20T05:22:07.908Z,30.55
2019-06-20T05:23:07.919Z,30.23
2019-06-20T05:24:07.919Z,29.60
2019-06-20T05:25:07.935Z,29.12
2019-06-20T05:26:07.935Z,28.85
2019-06-20T05:27:07.940Z,28.49
2019-06-20T05:28:07.946Z,28.25
2019-06-20T05:29:07.952Z,27.96
2019-06-20T05:30:07.954Z,27.85
2019-06-20T05:31:07.962Z,27.68
2019-06-20T05:32:07.967Z,27.63
2019-06-20T05:33:07.979Z,27.35
2019-06-20T05:34:07.990Z,27.12
2019-06-20T05:35:07.989Z,26.66
2019-06-20T05:36:07.997Z,26.34
2019-06-20T05:37:07.995Z,25.98
2019-06-20T05:38:08.011Z,25.90
2019-06-20T05:39:08.003Z,25.70
2019-06-20T05:40:08.022Z,25.80
2019-06-20T05:41:08.015Z,25.99
2019-06-20T05:42:08.021Z,26.00
2019-06-20T05:43:08.023Z,26.09
2019-06-20T05:44:08.024Z,26.15
2019-06-20T05:45:08.033Z,26.07
2019-06-20T05:46:10.663Z,25.98
2019-06-20T05:47:12.481Z,25.87
2019-06-20T05:48:08.047Z,25.54
2019-06-20T05:49:08.048Z,25.46
2019-06-20T05:50:08.073Z,25.31
2019-06-20T05:51:08.063Z,25.28
2019-06-20T05:52:08.066Z,25.08
2019-06-20T05:53:08.073Z,24.73
2019-06-20T05:54:08.072Z,24.50
2019-06-20T05:55:08.081Z,24.54
2019-06-20T05:56:08.602Z,24.55
2019-06-20T05:57:08.086Z,24.48
2019-06-20T05:58:08.091Z,24.48
2019-06-20T05:59:08.285Z,24.43
2019-06-20T06:00:08.354Z,24.45
2019-06-20T06:01:08.113Z,24.43
2019-06-20T06:02:08.111Z,24.45
2019-06-20T06:03:08.111Z,24.51
2019-06-20T06:04:08.950Z,24.63
2019-06-20T06:05:08.119Z,24.69
2019-06-20T06:06:08.134Z,24.86
2019-06-20T06:07:08.127Z,24.70
2019-06-20T06:08:08.128Z,24.70
2019-06-20T06:09:08.136Z,24.86
2019-06-20T06:10:08.138Z,25.01
2019-06-20T06:11:08.139Z,25.01
2019-06-20T06:12:08.143Z,25.01
2019-06-20T06:13:08.152Z,25.10
2019-06-20T06:14:08.154Z,25.01
2019-06-20T06:15:08.153Z,24.98
2019-06-20T06:16:08.174Z,24.85
2019-06-20T06:17:08.167Z,24.85
2019-06-20T06:18:08.166Z,24.86
2019-06-20T06:19:08.169Z,24.74
2019-06-20T06:20:08.174Z,24.65
2019-06-20T06:21:08.174Z,24.68
2019-06-20T06:22:08.176Z,24.50
2019-06-20T06:23:08.184Z,24.48
2019-06-20T06:24:08.189Z,24.45
2019-06-20T06:25:08.201Z,24.39
2019-06-20T06:26:08.199Z,24.40
2019-06-20T06:27:08.199Z,24.24
2019-06-20T06:28:08.209Z,24.17
2019-06-20T06:29:08.205Z,24.11
2019-06-20T06:30:08.219Z,24.03
2019-06-20T06:31:08.211Z,23.98
2019-06-20T06:32:08.216Z,23.87
2019-06-20T06:33:08.217Z,23.81
2019-06-20T06:34:08.222Z,23.58
2019-06-20T06:35:08.224Z,23.54
2019-06-20T06:36:08.222Z,23.34
2019-06-20T06:37:08.237Z,23.34
2019-06-20T06:38:08.230Z,23.36
2019-06-20T06:39:08.238Z,23.17
2019-06-20T06:40:08.243Z,23.17
2019-06-20T06:41:08.243Z,22.99
2019-06-20T06:42:08.254Z,22.98
2019-06-20T06:43:08.318Z,22.93
2019-06-20T06:44:08.558Z,22.84
2019-06-20T06:45:08.255Z,22.90
2019-06-20T06:46:08.258Z,22.90
2019-06-20T06:47:08.258Z,22.93
2019-06-20T06:48:08.264Z,22.87
2019-06-20T06:49:08.271Z,22.87
2019-06-20T06:50:08.271Z,22.90
2019-06-20T06:51:08.273Z,23.00
2019-06-20T06:52:08.277Z,22.93
2019-06-20T06:53:08.279Z,22.93
2019-06-20T06:54:08.284Z,22.69
2019-06-20T06:55:08.285Z,22.63
2019-06-20T06:56:08.283Z,22.65
2019-06-20T06:57:08.290Z,22.51
2019-06-20T06:58:08.294Z,22.48
2019-06-20T06:59:08.301Z,22.59
2019-06-20T07:00:08.294Z,22.45
2019-06-20T07:01:10.297Z,22.45
2019-06-20T07:02:08.300Z,22.47
2019-06-20T07:03:08.305Z,22.30
2019-06-20T07:04:08.309Z,22.22
2019-06-20T07:05:08.311Z,22.25
2019-06-20T07:06:08.312Z,22.25
2019-06-20T07:07:08.317Z,22.08
2019-06-20T07:08:08.315Z,21.99
2019-06-20T07:09:08.316Z,21.92
2019-06-20T07:10:08.321Z,21.80
2019-06-20T07:11:08.324Z,21.72
2019-06-20T07:12:08.338Z,21.73
2019-06-20T07:13:08.328Z,21.62
2019-06-20T07:14:08.331Z,21.46
2019-06-20T07:15:08.337Z,21.42
2019-06-20T07:16:08.336Z,21.36
2019-06-20T07:17:08.337Z,21.20
2019-06-20T07:18:08.342Z,21.24
2019-06-20T07:19:08.341Z,21.07
2019-06-20T07:20:08.348Z,21.12
2019-06-20T07:21:08.345Z,21.09
2019-06-20T07:22:08.344Z,21.14
2019-06-20T07:23:08.349Z,21.17
2019-06-20T07:24:08.351Z,21.25
2019-06-20T07:25:08.358Z,21.32
2019-06-20T07:26:08.358Z,21.39
2019-06-20T07:27:08.360Z,21.35
2019-06-20T07:28:08.373Z,21.46
2019-06-20T07:29:08.360Z,21.55
2019-06-20T07:30:08.361Z,21.58
2019-06-20T07:31:08.365Z,21.66
2019-06-20T07:32:08.365Z,21.79
2019-06-20T07:33:08.370Z,22.07
2019-06-20T07:34:08.374Z,22.06
2019-06-20T07:35:08.372Z,22.18
2019-06-20T07:36:08.388Z,22.26
2019-06-20T07:37:08.382Z,22.36
2019-06-20T07:38:08.376Z,22.39
2019-06-20T07:39:08.384Z,22.35
2019-06-20T07:40:08.383Z,22.53
2019-06-20T07:41:08.388Z,22.55
2019-06-20T07:42:08.384Z,22.70
2019-06-20T07:43:08.387Z,22.76
2019-06-20T07:44:08.389Z,22.85
2019-06-20T07:45:08.393Z,22.96
2019-06-20T07:46:08.396Z,22.88
2019-06-20T07:47:17.624Z,22.90
2019-06-20T07:48:08.403Z,22.90
2019-06-20T07:49:08.403Z,22.98
2019-06-20T07:50:08.407Z,22.98
2019-06-20T07:51:08.408Z,23.08
2019-06-20T07:52:08.409Z,23.10
2019-06-20T07:53:08.414Z,23.05
2019-06-20T07:54:08.416Z,22.98
2019-06-20T07:55:08.417Z,22.85
2019-06-20T07:56:09.508Z,22.87
2019-06-20T07:57:08.423Z,22.80
2019-06-20T07:58:08.427Z,22.73
2019-06-20T07:59:08.433Z,22.69
2019-06-20T08:00:08.427Z,22.93
2019-06-20T08:01:08.429Z,22.85
2019-06-20T08:02:08.438Z,22.93
2019-06-20T08:03:08.441Z,23.15
2019-06-20T08:04:08.443Z,23.23
2019-06-20T08:05:08.441Z,23.32
2019-06-20T08:06:08.442Z,23.36
2019-06-20T08:07:08.446Z,23.21
2019-06-20T08:08:08.448Z,23.31
2019-06-20T08:09:08.475Z,23.41
2019-06-20T08:10:08.458Z,23.48
2019-06-20T08:11:08.457Z,23.31
2019-06-20T08:12:08.457Z,23.31
2019-06-20T08:13:08.461Z,23.32
2019-06-20T08:14:08.463Z,23.25
2019-06-20T08:15:15.029Z,23.24
2019-06-20T08:16:08.471Z,23.13
2019-06-20T08:17:08.476Z,23.24
2019-06-20T08:18:08.475Z,23.23
2019-06-20T08:19:08.477Z,23.23
2019-06-20T08:20:08.483Z,23.18
2019-06-20T08:21:08.552Z,23.23
2019-06-20T08:22:08.487Z,23.28
2019-06-20T08:23:08.487Z,23.25
2019-06-20T08:24:08.491Z,23.48
2019-06-20T08:25:08.500Z,23.46
2019-06-20T08:26:08.494Z,23.46
2019-06-20T08:27:08.498Z,23.58
2019-06-20T08:28:08.502Z,23.77
2019-06-20T08:29:20.129Z,24.01
2019-06-20T08:30:08.504Z,24.28
2019-06-20T08:31:08.514Z,24.96
2019-06-20T08:32:08.517Z,25.32
2019-06-20T08:33:11.969Z,25.32
2019-06-20T08:34:08.522Z,25.44
2019-06-20T08:35:08.521Z,25.32
2019-06-20T08:36:08.528Z,25.46
2019-06-20T08:37:08.524Z,25.17
2019-06-20T08:38:08.531Z,25.03
2019-06-20T08:39:08.543Z,24.86
2019-06-20T08:40:08.535Z,24.69
2019-06-20T08:41:08.549Z,24.35
2019-06-20T08:42:08.544Z,24.05
2019-06-20T08:43:08.546Z,24.02
2019-06-20T08:44:08.556Z,24.01
2019-06-20T08:45:08.553Z,23.91
2019-06-20T08:46:10.359Z,23.84
2019-06-20T08:47:08.560Z,24.13
2019-06-20T08:48:08.565Z,24.01
2019-06-20T08:49:08.581Z,23.99
2019-06-20T08:50:08.569Z,24.69
2019-06-20T08:51:08.572Z,24.69
2019-06-20T08:52:08.579Z,24.61
2019-06-20T08:53:08.580Z,24.60
2019-06-20T08:54:08.582Z,24.55
2019-06-20T08:55:08.583Z,24.69
2019-06-20T08:56:08.596Z,25.44
2019-06-20T08:57:08.606Z,26.68
2019-06-20T08:58:08.598Z,27.96
2019-06-20T08:59:23.440Z,29.12
2019-06-20T09:00:08.605Z,28.84
2019-06-20T09:02:08.613Z,30.72
2019-06-20T09:03:08.626Z,29.24
2019-06-20T09:04:08.690Z,29.24
2019-06-20T09:05:08.625Z,29.61
2019-06-20T09:06:08.629Z,29.45
2019-06-20T09:07:08.634Z,30.34
2019-06-20T09:08:11.382Z,30.65
2019-06-20T09:09:08.644Z,30.25
2019-06-20T09:10:08.664Z,30.00
2019-06-20T09:11:08.655Z,29.68
2019-06-20T09:12:08.657Z,28.98
2019-06-20T09:13:08.661Z,28.37
2019-06-20T09:14:08.666Z,27.89
2019-06-20T09:15:08.670Z,27.10
2019-06-20T09:16:08.680Z,26.31
2019-06-20T09:17:08.694Z,25.70
2019-06-20T09:18:08.685Z,25.54
2019-06-20T09:19:08.688Z,25.40
2019-06-20T09:20:08.695Z,25.14
2019-06-20T09:21:08.699Z,25.03
2019-06-20T09:22:08.704Z,24.92
2019-06-20T09:23:08.707Z,24.80
2019-06-20T09:24:08.723Z,24.80
2019-06-20T09:25:08.729Z,24.76
2019-06-20T09:26:08.763Z,24.66
2019-06-20T09:27:08.729Z,24.70
2019-06-20T09:28:08.729Z,24.70
2019-06-20T09:29:08.730Z,24.88
2019-06-20T09:30:08.736Z,24.98
2019-06-20T09:31:08.747Z,25.04
2019-06-20T09:32:08.743Z,25.01
2019-06-20T09:33:08.743Z,25.11
2019-06-20T09:34:08.775Z,25.04
2019-06-20T09:35:08.763Z,25.01
2019-06-20T09:36:08.756Z,25.04
2019-06-20T09:37:08.765Z,25.08
2019-06-20T09:38:08.779Z,25.21
2019-06-20T09:39:08.768Z,25.29
2019-06-20T09:40:08.769Z,25.65
2019-06-20T09:41:08.773Z,25.81
2019-06-20T09:42:08.780Z,25.98
2019-06-20T09:43:08.798Z,26.13
2019-06-20T09:44:08.785Z,26.33
2019-06-20T09:45:08.787Z,26.07
2019-06-20T09:46:08.798Z,25.96
2019-06-20T09:47:08.798Z,26.13
2019-06-20T09:48:08.802Z,26.09
2019-06-20T09:49:08.804Z,26.00
2019-06-20T09:50:08.806Z,25.91
2019-06-20T09:51:08.816Z,26.09
2019-06-20T09:52:08.816Z,26.05
2019-06-20T09:53:08.820Z,26.09
2019-06-20T09:54:08.849Z,26.34
2019-06-20T09:55:08.827Z,26.41
2019-06-20T09:56:08.869Z,26.55
2019-06-20T09:57:08.838Z,26.59
2019-06-20T09:58:08.841Z,26.59
2019-06-20T09:59:08.850Z,26.25
2019-06-20T10:00:10.600Z,25.96
2019-06-20T10:01:08.856Z,25.98
2019-06-20T10:02:08.860Z,26.09
2019-06-20T10:03:08.870Z,26.21
2019-06-20T10:04:08.867Z,26.36
2019-06-20T10:05:08.968Z,26.38
2019-06-20T10:06:14.007Z,26.38
2019-06-20T10:07:08.883Z,26.59
2019-06-20T10:08:08.879Z,26.63
2019-06-20T10:09:08.885Z,26.81
2019-06-20T10:10:08.899Z,26.90
2019-06-20T10:11:08.892Z,27.15
2019-06-20T10:12:08.903Z,27.20
2019-06-20T10:13:08.903Z,27.05
2019-06-20T10:14:08.911Z,27.15
2019-06-20T10:15:08.913Z,27.21
2019-06-20T10:16:08.916Z,27.27
2019-06-20T10:17:08.920Z,27.35
2019-06-20T10:18:08.926Z,27.25
2019-06-20T10:19:08.931Z,27.45
2019-06-20T10:20:08.990Z,27.60
2019-06-20T10:21:08.939Z,27.82
2019-06-20T10:22:08.942Z,27.68
2019-06-20T10:23:08.949Z,27.74
2019-06-20T10:24:08.954Z,27.90
2019-06-20T10:25:08.962Z,27.52
2019-06-20T10:26:08.962Z,27.77
2019-06-20T10:27:08.968Z,27.87
2019-06-20T10:28:08.974Z,27.85
2019-06-20T10:29:08.979Z,27.65
2019-06-20T10:30:14.254Z,27.64
2019-06-20T10:31:08.987Z,27.55
2019-06-20T10:32:08.992Z,27.48
2019-06-20T10:33:08.998Z,27.35
2019-06-20T10:34:09.001Z,27.33
2019-06-20T10:35:09.005Z,27.35
2019-06-20T10:36:09.029Z,27.22
2019-06-20T10:37:09.017Z,27.14
2019-06-20T10:38:09.022Z,27.11
2019-06-20T10:39:09.029Z,27.20
2019-06-20T10:40:09.028Z,27.26
2019-06-20T10:41:09.033Z,27.18
2019-06-20T10:42:09.039Z,27.27
2019-06-20T10:43:09.045Z,27.18
2019-06-20T10:44:09.051Z,27.05
2019-06-20T10:45:09.056Z,27.02
2019-06-20T10:46:09.057Z,26.78
2019-06-20T10:47:09.060Z,26.74
2019-06-20T10:48:09.069Z,26.90
2019-06-20T10:49:09.068Z,27.07
2019-06-20T10:50:09.075Z,27.02
2019-06-20T10:51:09.079Z,27.05
2019-06-20T10:52:09.083Z,26.74
2019-06-20T10:53:09.091Z,26.80
2019-06-20T10:54:09.092Z,26.78
2019-06-20T10:55:09.100Z,26.77
2019-06-20T10:56:09.103Z,26.71
2019-06-20T10:57:09.104Z,26.66
2019-06-20T10:58:09.112Z,26.65
2019-06-20T10:59:09.118Z,26.70
2019-06-20T11:00:09.117Z,27.02
2019-06-20T11:01:09.122Z,27.26
2019-06-20T11:02:09.132Z,27.47
2019-06-20T11:03:09.139Z,27.45
2019-06-20T11:04:09.139Z,27.64
2019-06-20T11:05:09.141Z,27.86
2019-06-20T11:06:09.167Z,27.92
2019-06-20T11:07:09.156Z,27.93
2019-06-20T11:08:09.151Z,28.00
2019-06-20T11:09:09.160Z,28.10
2019-06-20T11:10:09.170Z,28.41
2019-06-20T11:11:09.173Z,28.56
2019-06-20T11:12:09.178Z,28.67
2019-06-20T11:13:09.177Z,28.60
2019-06-20T11:14:09.181Z,28.39
2019-06-20T11:15:09.191Z,28.60
2019-06-20T11:16:09.193Z,28.49
2019-06-20T11:17:09.199Z,28.30
2019-06-20T11:18:09.204Z,28.30
2019-06-20T11:19:09.211Z,28.26
2019-06-20T11:20:09.213Z,28.11
2019-06-20T11:21:09.214Z,28.12
2019-06-20T11:22:09.221Z,28.04
2019-06-20T11:23:09.224Z,28.07
2019-06-20T11:24:09.228Z,28.05
2019-06-20T11:25:09.237Z,27.82
2019-06-20T11:26:09.237Z,27.92
2019-06-20T11:27:09.243Z,28.02
2019-06-20T11:28:09.248Z,27.82
2019-06-20T11:29:09.252Z,27.86
2019-06-20T11:30:09.268Z,28.01
2019-06-20T11:31:09.264Z,27.92
2019-06-20T11:32:09.269Z,28.07
2019-06-20T11:33:09.274Z,28.02
2019-06-20T11:34:09.275Z,27.95
2019-06-20T11:35:09.280Z,28.00
2019-06-20T11:36:09.302Z,28.08
2019-06-20T11:37:09.303Z,28.19
2019-06-20T11:38:09.294Z,28.29
2019-06-20T11:39:09.300Z,28.20
2019-06-20T11:40:09.302Z,28.11
2019-06-20T11:41:09.306Z,28.08
2019-06-20T11:42:09.314Z,28.23
2019-06-20T11:43:09.316Z,28.39
2019-06-20T11:44:09.324Z,28.51
2019-06-20T11:45:09.334Z,28.38
2019-06-20T11:46:09.332Z,28.56
2019-06-20T11:47:09.335Z,28.54
2019-06-20T11:48:09.341Z,28.70
2019-06-20T11:49:09.349Z,28.37
2019-06-20T11:50:09.363Z,28.48
2019-06-20T11:51:09.360Z,28.48
2019-06-20T11:52:09.421Z,28.60
2019-06-20T11:53:09.371Z,28.48
2019-06-20T11:54:09.373Z,28.51
2019-06-20T11:55:09.377Z,28.51
2019-06-20T11:56:09.462Z,28.52
2019-06-20T11:57:09.457Z,28.63
2019-06-20T11:58:09.393Z,28.54
2019-06-20T11:59:09.397Z,28.37
2019-06-20T12:00:09.401Z,28.30
2019-06-20T12:01:09.408Z,28.26
2019-06-20T12:02:09.421Z,28.17
2019-06-20T12:03:09.417Z,27.98
2019-06-20T12:04:09.579Z,27.85
2019-06-20T12:05:09.429Z,27.75
2019-06-20T12:06:09.434Z,27.68
2019-06-20T12:07:09.439Z,27.55
2019-06-20T12:08:09.450Z,27.67
2019-06-20T12:09:09.447Z,27.65
2019-06-20T12:10:09.452Z,27.59
2019-06-20T12:11:09.459Z,27.65
2019-06-20T12:12:09.463Z,27.87
2019-06-20T12:13:09.470Z,28.05
2019-06-20T12:14:09.494Z,28.05
2019-06-20T12:15:09.478Z,28.04
2019-06-20T12:16:09.482Z,28.01
2019-06-20T12:17:09.486Z,28.08
2019-06-20T12:18:09.492Z,28.04
2019-06-20T12:19:09.497Z,28.02
2019-06-20T12:20:09.501Z,27.93
2019-06-20T12:21:09.507Z,28.08
2019-06-20T12:22:09.512Z,28.19
2019-06-20T12:23:09.523Z,28.22
2019-06-20T12:24:09.519Z,28.52
2019-06-20T12:25:09.545Z,28.41
2019-06-20T12:26:09.533Z,28.35
2019-06-20T12:27:09.537Z,28.29
2019-06-20T12:28:09.541Z,28.38
2019-06-20T12:29:09.557Z,28.59
2019-06-20T12:30:09.550Z,28.64
2019-06-20T12:31:18.845Z,28.72
2019-06-20T12:32:10.116Z,28.85
2019-06-20T12:33:09.567Z,28.66
2019-06-20T12:34:09.571Z,28.67
2019-06-20T12:35:09.578Z,28.59
2019-06-20T12:36:09.581Z,28.52
2019-06-20T12:37:09.588Z,28.44
2019-06-20T12:38:09.599Z,28.07
2019-06-20T12:39:09.605Z,28.01
2019-06-20T12:40:09.605Z,27.89
2019-06-20T12:41:09.606Z,27.85
2019-06-20T12:42:09.657Z,27.74
2019-06-20T12:43:09.615Z,27.73
2019-06-20T12:44:09.620Z,27.83
2019-06-20T12:45:09.631Z,27.68
2019-06-20T12:46:09.634Z,27.80
2019-06-20T12:47:09.635Z,27.83
2019-06-20T12:48:09.716Z,27.87
2019-06-20T12:49:09.647Z,27.93
2019-06-20T12:50:09.650Z,28.14
2019-06-20T12:51:09.669Z,28.17
2019-06-20T12:52:09.665Z,28.37
2019-06-20T12:53:09.666Z,28.32